Time;durP1;ratioP1;P1;durP2;ratioP2;P2;SDS_P1;SDS_P2;PMS_P1;PMS_P2;Temp;Humidity;BMP_temperature;BMP_pressure;BME280_temperature;BME280_humidity;BME280_pressure;Samples;Min_cycle;Max_cycle;Signal;HPM_P1;HPM_P2
2022/05/05 00:02:19;;;;;;;34.90;26.98;;;;;;;-141.50;100.00;63355.56;5146855;27;20125;-81
2022/05/05 00:04:45;;;;;;;36.50;26.75;;;;;;;-141.50;100.00;63355.56;5156322;27;20164;-80
2022/05/05 00:07:14;;;;;;;39.10;27.25;;;;;;;-141.50;100.00;63355.56;5148586;27;20035;-81
2022/05/05 00:15:41;;;;;;;35.70;27.30;;;;;;;-141.50;100.00;63355.56;5136238;27;20070;-80
2022/05/05 00:18:08;;;;;;;36.13;26.77;;;;;;;-141.50;100.00;63355.56;5135605;27;20076;-80
2022/05/05 00:20:34;;;;;;;39.10;28.67;;;;;;;-141.50;100.00;63355.56;5116933;27;20102;-79
2022/05/05 00:23:01;;;;;;;34.95;26.63;;;;;;;-141.50;100.00;63355.56;5135506;27;20444;-80
2022/05/05 00:25:31;;;;;;;38.95;27.00;;;;;;;-141.50;100.00;63355.56;5136287;27;20049;-80
2022/05/05 00:27:57;;;;;;;36.78;28.02;;;;;;;-141.50;100.00;63355.56;5136203;27;20069;-81
2022/05/05 00:30:27;;;;;;;42.67;29.50;;;;;;;-141.50;100.00;63355.56;5135911;27;20501;-79
2022/05/05 00:32:54;;;;;;;37.53;29.13;;;;;;;-141.50;100.00;63355.56;5116148;27;20075;-81
2022/05/05 00:35:23;;;;;;;40.40;29.85;;;;;;;-141.50;100.00;63355.56;5135616;27;20157;-81
2022/05/05 00:37:49;;;;;;;39.67;29.20;;;;;;;-141.50;100.00;63355.56;5135638;27;20495;-82
2022/05/05 00:40:16;;;;;;;41.40;30.75;;;;;;;-141.50;100.00;63355.56;5136035;27;20054;-82
2022/05/05 00:42:50;;;;;;;41.17;30.23;;;;;;;-141.50;100.00;63355.56;5135914;27;20077;-80
2022/05/05 00:45:17;;;;;;;45.63;31.40;;;;;;;-141.50;100.00;63355.56;5136356;27;20047;-81
2022/05/05 00:47:43;;;;;;;42.63;31.50;;;;;;;-141.50;100.00;63355.56;5136404;27;20043;-81
2022/05/05 00:50:11;;;;;;;44.00;30.75;;;;;;;-141.50;100.00;63355.56;5136112;27;20051;-81
2022/05/05 00:52:38;;;;;;;40.60;29.27;;;;;;;-141.50;100.00;63355.56;5134832;27;20082;-82
2022/05/05 00:55:07;;;;;;;42.05;29.63;;;;;;;-141.50;100.00;63355.56;5136283;27;20172;-80
2022/05/05 00:57:36;;;;;;;39.70;29.48;;;;;;;-141.50;100.00;63355.56;5117893;27;20043;-80
2022/05/05 01:00:03;;;;;;;39.53;29.08;;;;;;;-141.50;100.00;63355.56;5136237;27;20078;-82
2022/05/05 01:02:32;;;;;;;37.40;28.95;;;;;;;-141.50;100.00;63355.56;5135255;27;20130;-82
2022/05/05 01:04:59;;;;;;;39.85;29.80;;;;;;;-141.50;100.00;63355.56;5115033;27;20043;-81
2022/05/05 01:07:26;;;;;;;40.13;30.20;;;;;;;-141.50;100.00;63355.56;5135246;27;20138;-80
2022/05/05 01:09:53;;;;;;;43.55;29.77;;;;;;;-141.50;100.00;63355.56;5135194;27;20482;-82
2022/05/05 01:12:29;;;;;;;40.67;30.02;;;;;;;-141.50;100.00;63355.56;5134984;27;20398;-81
2022/05/05 01:14:55;;;;;;;42.50;29.90;;;;;;;-141.50;100.00;63355.56;5136158;27;20047;-81
2022/05/05 01:17:22;;;;;;;43.67;30.13;;;;;;;-141.50;100.00;63355.56;5134013;27;20078;-79
2022/05/05 01:20:11;;;;;;;41.08;30.35;;;;;;;-141.50;100.00;63355.56;5135906;27;20047;-79
2022/05/05 01:22:37;;;;;;;40.63;29.42;;;;;;;-141.50;100.00;63355.56;5136294;27;20043;-78
2022/05/05 01:30:35;;;;;;;41.35;30.63;;;;;;;-141.50;100.00;63355.56;5135065;27;20047;-79
2022/05/05 01:33:09;;;;;;;41.15;29.30;;;;;;;-141.50;100.00;63355.56;5133251;27;20043;-80
2022/05/05 01:35:36;;;;;;;35.00;27.33;;;;;;;-141.50;100.00;63355.56;5131779;27;20045;-80
2022/05/05 01:38:02;;;;;;;37.42;27.50;;;;;;;-141.50;100.00;63355.56;5140893;27;20059;-79
2022/05/05 01:40:29;;;;;;;37.50;28.30;;;;;;;-141.50;100.00;63355.56;5148934;27;20043;-79
2022/05/05 01:42:55;;;;;;;43.42;28.30;;;;;;;-141.50;100.00;63355.56;5149866;27;20366;-80
2022/05/05 01:45:22;;;;;;;38.17;29.13;;;;;;;-141.50;100.00;63355.56;5131924;27;20042;-79
2022/05/05 01:47:53;;;;;;;46.35;30.55;;;;;;;-141.50;100.00;63355.56;5147574;27;20066;-81
2022/05/05 01:50:20;;;;;;;45.80;33.17;;;;;;;-141.50;100.00;63355.56;5135834;27;20122;-81
2022/05/05 01:52:49;;;;;;;45.45;32.65;;;;;;;-141.50;100.00;63355.56;5135361;27;20046;-81
2022/05/05 01:55:16;;;;;;;48.60;34.15;;;;;;;-141.50;100.00;63355.56;5136677;27;20047;-81
2022/05/05 01:57:42;;;;;;;47.50;34.03;;;;;;;-141.50;100.00;63355.56;5135253;27;20089;-80
2022/05/05 02:00:09;;;;;;;46.42;32.85;;;;;;;-141.50;100.00;63355.56;5135422;27;20499;-78
2022/05/05 02:02:37;;;;;;;46.38;33.10;;;;;;;-141.50;100.00;63355.56;5117759;27;20039;-79
2022/05/05 02:05:06;;;;;;;49.78;34.28;;;;;;;-141.50;100.00;63355.56;5140520;27;20656;-78
2022/05/05 02:07:35;;;;;;;52.05;32.80;;;;;;;-141.50;100.00;63355.56;5138723;27;20058;-78
2022/05/05 02:10:06;;;;;;;49.00;34.30;;;;;;;-141.50;100.00;63355.56;5138861;27;20039;-82
2022/05/05 02:12:36;;;;;;;50.75;34.13;;;;;;;-141.50;100.00;63355.56;5138235;27;20054;-82
2022/05/05 02:15:06;;;;;;;47.75;33.45;;;;;;;-141.50;100.00;63355.56;5136598;27;20124;-80
2022/05/05 02:17:39;;;;;;;;;;;;;;;-141.50;100.00;63355.56;5134683;27;20533;-78
2022/05/05 02:20:13;;;;;;;49.45;34.72;;;;;;;-141.50;100.00;63355.56;5122141;28;19921;-78
2022/05/05 02:22:46;;;;;;;51.33;35.63;;;;;;;-141.50;100.00;63355.56;5126266;28;20039;-78
2022/05/05 02:25:20;;;;;;;59.78;39.65;;;;;;;-141.50;100.00;63355.56;5146196;28;20043;-78
2022/05/05 02:27:53;;;;;;;62.42;39.80;;;;;;;-141.50;100.00;63355.56;5147929;28;20055;-78
2022/05/05 02:30:23;;;;;;;58.80;39.20;;;;;;;-141.50;100.00;63355.56;5145579;28;20103;-79
2022/05/05 02:32:51;;;;;;;64.80;40.47;;;;;;;-141.50;100.00;63355.56;5144540;28;20039;-80
2022/05/05 02:35:18;;;;;;;69.15;42.72;;;;;;;-141.50;100.00;63355.56;5131715;28;20031;-80
2022/05/05 02:40:31;;;;;;;74.28;45.70;;;;;;;-141.50;100.00;63355.56;5154011;28;20072;-78
2022/05/05 02:42:58;;;;;;;78.65;46.50;;;;;;;-141.50;100.00;63355.56;5153606;28;20091;-79
2022/05/05 02:45:25;;;;;;;75.30;45.92;;;;;;;-141.50;100.00;63355.56;5144826;28;20058;-80
2022/05/05 02:47:55;;;;;;;83.28;47.83;;;;;;;-141.50;100.00;63355.56;5135088;27;20051;-81
2022/05/05 02:50:24;;;;;;;78.78;48.55;;;;;;;-141.50;100.00;63355.56;5140317;27;20483;-82
2022/05/05 02:52:50;;;;;;;77.05;47.42;;;;;;;-141.50;100.00;63355.56;5121608;27;20074;-81
2022/05/05 02:55:17;;;;;;;80.40;49.72;;;;;;;-141.50;100.00;63355.56;5139737;27;20046;-79
2022/05/05 02:57:45;;;;;;;84.10;49.47;;;;;;;-141.50;100.00;63355.56;5139107;27;20126;-81
2022/05/05 03:00:12;;;;;;;88.20;48.65;;;;;;;-141.50;100.00;63355.56;5138801;27;20039;-79
2022/05/05 03:02:41;;;;;;;79.97;47.95;;;;;;;-141.50;100.00;63355.56;5138565;27;20503;-80
2022/05/05 03:05:10;;;;;;;79.10;47.03;;;;;;;-141.50;100.00;63355.56;5121301;27;20042;-80
2022/05/05 03:07:38;;;;;;;80.57;46.50;;;;;;;-141.50;100.00;63355.56;5140250;27;20483;-82
2022/05/05 03:10:05;;;;;;;82.10;48.45;;;;;;;-141.50;100.00;63355.56;5123340;27;20068;-80
2022/05/05 03:12:32;;;;;;;80.40;46.53;;;;;;;-141.50;100.00;63355.56;5140509;27;20061;-80
2022/05/05 03:14:58;;;;;;;77.50;44.95;;;;;;;-141.50;100.00;63355.56;5141478;27;20050;-82
2022/05/05 03:17:25;;;;;;;73.25;45.22;;;;;;;-141.50;100.00;63355.56;5141696;27;20463;-81
2022/05/05 03:19:51;;;;;;;74.97;45.75;;;;;;;-141.50;100.00;63355.56;5141318;27;20090;-80
2022/05/05 03:22:21;;;;;;;71.78;43.55;;;;;;;-141.50;100.00;63355.56;5155665;27;20127;-81
2022/05/05 03:24:47;;;;;;;71.53;43.72;;;;;;;-141.50;100.00;63355.56;5132446;27;20042;-80
2022/05/05 03:27:14;;;;;;;69.80;42.78;;;;;;;-141.50;100.00;63355.56;5140699;27;20042;-80
2022/05/05 03:29:41;;;;;;;75.47;44.63;;;;;;;-141.50;100.00;63355.56;5148703;27;20146;-80
2022/05/05 03:32:10;;;;;;;73.70;44.30;;;;;;;-141.50;100.00;63355.56;5138886;27;20047;-78
2022/05/05 03:34:37;;;;;;;72.72;44.80;;;;;;;-141.50;100.00;63355.56;5140810;27;20074;-78
2022/05/05 03:37:10;;;;;;;73.13;44.17;;;;;;;-141.50;100.00;63355.56;5149090;27;20063;-82
2022/05/05 03:39:37;;;;;;;73.03;42.90;;;;;;;-141.50;100.00;63355.56;5120670;27;20046;-79
2022/05/05 03:42:04;;;;;;;66.43;41.83;;;;;;;-141.50;100.00;63355.56;5120562;27;20051;-80
2022/05/05 03:44:33;;;;;;;71.45;43.80;;;;;;;-141.50;100.00;63355.56;5120144;27;20054;-79
2022/05/05 03:47:02;;;;;;;78.50;46.38;;;;;;;-141.50;100.00;63355.56;5138359;27;20325;-81
2022/05/05 03:49:32;;;;;;;77.07;46.85;;;;;;;-141.50;100.00;63355.56;5143170;27;20066;-79
2022/05/05 03:52:01;;;;;;;78.43;45.88;;;;;;;-141.50;100.00;63355.56;5142517;27;20456;-80
2022/05/05 03:54:27;;;;;;;75.32;44.90;;;;;;;-141.50;100.00;63355.56;5139054;27;20043;-80
2022/05/05 03:56:54;;;;;;;68.30;42.50;;;;;;;-141.50;100.00;63355.56;5140992;27;20047;-81
2022/05/05 03:59:32;;;;;;;69.68;43.83;;;;;;;-141.50;100.00;63355.56;5136923;27;20043;-81
2022/05/05 04:01:58;;;;;;;66.32;41.05;;;;;;;-141.50;100.00;63355.56;5136572;27;20122;-82
2022/05/05 04:04:27;;;;;;;60.97;39.90;;;;;;;-141.50;100.00;63355.56;5136862;27;20046;-79
2022/05/05 04:06:54;;;;;;;66.03;40.47;;;;;;;-141.50;100.00;63355.56;5139208;27;20051;-81
2022/05/05 04:09:20;;;;;;;63.10;38.67;;;;;;;-141.50;100.00;63355.56;5138795;27;20108;-80
2022/05/05 04:11:47;;;;;;;62.95;40.08;;;;;;;-141.50;100.00;63355.56;5138333;27;20073;-80
2022/05/05 04:14:13;;;;;;;63.75;40.45;;;;;;;-141.50;100.00;63355.56;5138966;27;20071;-81
2022/05/05 04:16:41;;;;;;;67.10;40.67;;;;;;;-141.50;100.00;63355.56;5139312;27;20069;-81
2022/05/05 04:19:07;;;;;;;62.47;38.65;;;;;;;-141.50;100.00;63355.56;5138315;27;20054;-81
2022/05/05 04:21:34;;;;;;;63.90;40.50;;;;;;;-141.50;100.00;63355.56;5136575;27;20096;-82
2022/05/05 04:24:04;;;;;;;61.25;39.67;;;;;;;-141.50;100.00;63355.56;5116949;27;20083;-84
2022/05/05 04:26:31;;;;;;;59.38;38.70;;;;;;;-141.50;100.00;63355.56;5135519;27;20498;-81
2022/05/05 04:28:58;;;;;;;62.88;38.88;;;;;;;-141.50;100.00;63355.56;5133678;27;20043;-82
2022/05/05 04:31:33;;;;;;;57.88;37.78;;;;;;;-141.50;100.00;63355.56;5135141;27;20046;-81
2022/05/05 04:34:01;;;;;;;62.22;40.20;;;;;;;-141.50;100.00;63355.56;5137091;27;20560;-80
2022/05/05 04:36:34;;;;;;;63.88;39.35;;;;;;;-141.50;100.00;63355.56;5137036;27;20052;-80
2022/05/05 04:39:05;;;;;;;65.40;40.10;;;;;;;-141.50;100.00;63355.56;5118882;27;20047;-79
2022/05/05 04:41:35;;;;;;;64.55;40.20;;;;;;;-141.50;100.00;63355.56;5136223;27;20054;-81
2022/05/05 04:44:01;;;;;;;62.33;40.25;;;;;;;-141.50;100.00;63355.56;5135336;27;20047;-81
2022/05/05 04:46:35;;;;;;;68.00;42.95;;;;;;;-141.50;100.00;63355.56;5135057;27;20043;-81
2022/05/05 04:49:02;;;;;;;76.03;41.92;;;;;;;-141.50;100.00;63355.56;5135439;27;20445;-81
2022/05/05 04:51:29;;;;;;;73.25;44.67;;;;;;;-141.50;100.00;63355.56;5135477;27;20050;-80
2022/05/05 04:53:59;;;;;;;69.85;42.95;;;;;;;-141.50;100.00;63355.56;5134445;27;20047;-79
2022/05/05 04:56:25;;;;;;;70.63;42.17;;;;;;;-141.50;100.00;63355.56;5136242;27;20047;-79
2022/05/05 04:58:52;;;;;;;77.72;45.35;;;;;;;-141.50;100.00;63355.56;5134807;27;20115;-79
2022/05/05 05:01:19;;;;;;;75.80;45.03;;;;;;;-141.50;100.00;63355.56;5133717;27;20074;-78
2022/05/05 05:03:45;;;;;;;75.25;46.38;;;;;;;-141.50;100.00;63355.56;5133484;27;20045;-80
2022/05/05 05:06:12;;;;;;;72.82;45.42;;;;;;;-141.50;100.00;63355.56;5134147;27;20042;-81
2022/05/05 05:08:39;;;;;;;70.65;45.17;;;;;;;-141.50;100.00;63355.56;5136179;27;20051;-82
2022/05/05 05:11:06;;;;;;;68.80;42.40;;;;;;;-141.50;100.00;63355.56;5137669;27;20092;-78
2022/05/05 05:13:33;;;;;;;62.80;41.33;;;;;;;-141.50;100.00;63355.56;5118466;27;20119;-80
2022/05/05 05:16:00;;;;;;;66.60;44.03;;;;;;;-141.50;100.00;63355.56;5136842;27;20075;-82
2022/05/05 05:18:27;;;;;;;67.60;43.30;;;;;;;-141.50;100.00;63355.56;5136957;27;20108;-82
2022/05/05 05:20:54;;;;;;;82.70;46.45;;;;;;;-141.50;100.00;63355.56;5136350;27;20067;-82
2022/05/05 05:23:20;;;;;;;78.28;47.97;;;;;;;-141.50;100.00;63355.56;5137554;27;20051;-81
2022/05/05 05:25:47;;;;;;;81.78;47.65;;;;;;;-141.50;100.00;63355.56;5137240;27;20053;-82
2022/05/05 05:28:14;;;;;;;81.50;48.58;;;;;;;-141.50;100.00;63355.56;5137298;27;20089;-82
2022/05/05 05:30:43;;;;;;;81.88;48.53;;;;;;;-141.50;100.00;63355.56;5138054;27;20051;-78
2022/05/05 05:33:11;;;;;;;77.68;47.85;;;;;;;-141.50;100.00;63355.56;5135808;27;20039;-79
2022/05/05 05:35:37;;;;;;;72.57;45.53;;;;;;;-141.50;100.00;63355.56;5137884;27;20391;-79
2022/05/05 05:38:04;;;;;;;67.90;42.03;;;;;;;-141.50;100.00;63355.56;5138524;27;20483;-79
2022/05/05 05:40:34;;;;;;;70.20;41.90;;;;;;;-141.50;100.00;63355.56;5117730;27;20043;-79
2022/05/05 05:43:06;;;;;;;67.45;42.90;;;;;;;-141.50;100.00;63355.56;5136064;27;20039;-80
2022/05/05 05:45:37;;;;;;;60.47;39.67;;;;;;;-141.50;100.00;63355.56;5135970;27;20054;-81
2022/05/05 05:48:06;;;;;;;65.07;38.45;;;;;;;-141.50;100.00;63355.56;5136155;27;20068;-81
2022/05/05 05:50:34;;;;;;;59.95;37.70;;;;;;;-141.50;100.00;63355.56;5135904;27;20051;-78
2022/05/05 05:53:01;;;;;;;57.88;38.58;;;;;;;-141.50;100.00;63355.56;5135619;27;20536;-80
2022/05/05 05:55:28;;;;;;;57.40;37.25;;;;;;;-141.50;100.00;63355.56;5119213;27;20136;-81
2022/05/05 05:57:57;;;;;;;57.33;37.63;;;;;;;-141.50;100.00;63355.56;5138453;27;20054;-79
2022/05/05 06:00:24;;;;;;;59.42;40.13;;;;;;;-141.50;100.00;63355.56;5130759;27;20051;-78
2022/05/05 06:05:38;;;;;;;58.10;37.50;;;;;;;-141.50;100.00;63355.56;5149152;27;20039;-80
2022/05/05 06:08:14;;;;;;;56.75;36.25;;;;;;;-141.50;100.00;63355.56;5159086;27;20043;-79
2022/05/05 06:10:43;;;;;;;49.13;32.30;;;;;;;-141.50;100.00;63355.56;5085888;22;20129;-79
2022/05/05 06:13:09;;;;;;;45.53;30.92;;;;;;;-141.50;100.00;63355.56;5062404;28;20068;-77
2022/05/05 06:15:36;;;;;;;41.60;26.50;;;;;;;-141.50;100.00;63355.56;5103375;28;20048;-77
2022/05/05 06:18:05;;;;;;;46.78;29.92;;;;;;;-141.50;100.00;63355.56;5105927;28;20048;-80
2022/05/05 06:20:37;;;;;;;37.70;25.42;;;;;;;-141.50;100.00;63355.56;5095211;28;20048;-76
2022/05/05 06:23:22;;;;;;;37.70;24.42;;;;;;;-141.50;100.00;63355.56;5076414;28;20173;-82
2022/05/05 06:25:48;;;;;;;36.45;24.40;;;;;;;-141.50;100.00;63355.56;5093688;28;20044;-80
2022/05/05 06:28:15;;;;;;;36.30;22.92;;;;;;;-141.50;100.00;63355.56;5084086;28;20044;-82
2022/05/05 06:30:41;;;;;;;34.50;23.25;;;;;;;-141.50;100.00;63355.56;5084019;28;20044;-79
2022/05/05 06:33:25;;;;;;;35.95;22.20;;;;;;;-141.50;100.00;63355.56;5100825;28;20044;-80
2022/05/05 06:35:57;;;;;;;34.08;22.40;;;;;;;-141.50;100.00;63355.56;5101795;28;20056;-79
2022/05/05 06:38:24;;;;;;;32.83;21.80;;;;;;;-141.50;100.00;63355.56;5101516;28;20083;-81
2022/05/05 06:40:53;;;;;;;27.90;18.67;;;;;;;-141.50;100.00;63355.56;5095233;28;20079;-81
2022/05/05 06:43:19;;;;;;;27.83;18.98;;;;;;;-141.50;100.00;63355.56;5096040;28;20071;-82
2022/05/05 06:45:49;;;;;;;34.92;18.65;;;;;;;-141.50;100.00;63355.56;5072333;28;20107;-80
2022/05/05 06:48:16;;;;;;;30.50;18.05;;;;;;;-141.50;100.00;63355.56;5088396;28;20056;-79
2022/05/05 06:50:43;;;;;;;26.20;16.35;;;;;;;-141.50;100.00;63355.56;5122421;28;20091;-80
2022/05/05 06:53:12;;;;;;;31.25;17.73;;;;;;;-141.50;100.00;63355.56;5116461;28;20056;-81
2022/05/05 06:55:43;;;;;;;26.95;16.83;;;;;;;-141.50;100.00;63355.56;5110566;28;20047;-80
2022/05/05 06:58:10;;;;;;;24.25;16.08;;;;;;;-141.50;100.00;63355.56;5096099;28;20044;-80
2022/05/05 07:03:24;;;;;;;25.02;14.60;;;;;;;-141.50;100.00;63355.56;5113262;28;20503;-78
2022/05/05 07:06:11;;;;;;;24.52;14.80;;;;;;;-141.50;100.00;63355.56;5110655;28;20100;-80
2022/05/05 07:11:45;;;;;;;22.83;14.13;;;;;;;-141.50;100.00;63355.56;5112616;28;20496;-80
2022/05/05 07:14:12;;;;;;;28.13;15.10;;;;;;;-141.50;100.00;63355.56;5113818;28;20101;-78
2022/05/05 07:16:38;;;;;;;33.05;15.35;;;;;;;-141.50;100.00;63355.56;5109959;28;20051;-79
2022/05/05 07:19:06;;;;;;;28.73;15.10;;;;;;;-141.50;100.00;63355.56;5111075;28;20073;-78
2022/05/05 07:21:32;;;;;;;31.67;16.02;;;;;;;-141.50;100.00;63355.56;5112694;28;20079;-77
2022/05/05 07:23:59;;;;;;;25.08;14.68;;;;;;;-141.50;100.00;63355.56;5095331;28;20085;-79
2022/05/05 07:26:25;;;;;;;28.40;14.63;;;;;;;-141.50;100.00;63355.56;5095872;28;20426;-79
2022/05/05 07:28:57;;;;;;;23.08;14.27;;;;;;;-141.50;100.00;63355.56;5114883;28;20082;-78
2022/05/05 07:31:26;;;;;;;22.60;13.23;;;;;;;-141.50;100.00;63355.56;5096818;28;20056;-79
2022/05/05 07:33:53;;;;;;;29.63;14.52;;;;;;;-141.50;100.00;63355.56;5099011;28;20541;-78
2022/05/05 07:36:27;;;;;;;23.38;12.60;;;;;;;-141.50;100.00;63355.56;5120458;28;20067;-77
2022/05/05 07:38:53;;;;;;;23.58;12.18;;;;;;;-141.50;100.00;63355.56;5103059;28;20051;-80
2022/05/05 07:41:24;;;;;;;19.73;11.35;;;;;;;-141.50;100.00;63355.56;5123429;28;20138;-79
2022/05/05 07:43:55;;;;;;;19.77;10.90;;;;;;;-141.50;100.00;63355.56;5122851;28;20051;-79
2022/05/05 07:46:23;;;;;;;14.38;9.65;;;;;;;-141.50;100.00;63355.56;5094841;28;20190;-78
2022/05/05 07:48:51;;;;;;;23.23;11.35;;;;;;;-141.50;100.00;63355.56;5113673;28;20043;-80
2022/05/05 07:51:17;;;;;;;20.15;10.32;;;;;;;-141.50;100.00;63355.56;5107122;28;20051;-78
2022/05/05 07:56:36;;;;;;;18.80;9.88;;;;;;;-141.50;100.00;63355.56;5116968;28;20051;-77
2022/05/05 07:59:04;;;;;;;18.02;11.18;;;;;;;-141.50;100.00;63355.56;5098608;28;20078;-77
2022/05/05 08:01:30;;;;;;;19.33;10.15;;;;;;;-141.50;100.00;63355.56;5098438;28;20652;-78
2022/05/05 08:03:57;;;;;;;19.48;10.65;;;;;;;-141.50;100.00;63355.56;5118048;28;20039;-78
2022/05/05 08:06:24;;;;;;;19.90;9.63;;;;;;;-141.50;100.00;63355.56;5101198;28;20431;-79
2022/05/05 08:08:54;;;;;;;15.48;8.90;;;;;;;-141.50;100.00;63355.56;5118517;28;20532;-78
2022/05/05 08:11:21;;;;;;;13.02;8.90;;;;;;;-141.50;100.00;63355.56;5119609;28;20110;-80
2022/05/05 08:13:47;;;;;;;17.30;9.45;;;;;;;-141.50;100.00;63355.56;5113781;28;20044;-78
2022/05/05 08:16:14;;;;;;;15.27;9.43;;;;;;;-141.50;100.00;63355.56;5096825;28;20062;-77
2022/05/05 08:18:41;;;;;;;19.88;9.80;;;;;;;-141.50;100.00;63355.56;5116630;28;20418;-80
2022/05/05 08:21:10;;;;;;;20.10;10.35;;;;;;;-141.50;100.00;63355.56;5100176;28;20124;-78
2022/05/05 08:23:38;;;;;;;18.05;10.43;;;;;;;-141.50;100.00;63355.56;5118624;28;20071;-79
2022/05/05 08:28:50;;;;;;;13.77;9.32;;;;;;;-141.50;100.00;63355.56;5119251;28;20079;-81
2022/05/05 08:31:21;;;;;;;18.27;9.63;;;;;;;-141.50;100.00;63355.56;5101275;28;20051;-79
2022/05/05 08:33:49;;;;;;;14.80;9.02;;;;;;;-141.50;100.00;63355.56;5118857;28;20103;-77
2022/05/05 08:36:15;;;;;;;15.13;9.07;;;;;;;-141.50;100.00;63355.56;5101146;28;20465;-78
2022/05/05 08:38:46;;;;;;;15.80;9.55;;;;;;;-141.50;100.00;63355.56;5117464;28;20048;-77
2022/05/05 08:41:15;;;;;;;22.10;10.60;;;;;;;-141.50;100.00;63355.56;5103754;28;20090;-76
2022/05/05 08:43:42;;;;;;;16.30;9.48;;;;;;;-141.50;100.00;63355.56;5123315;28;20686;-78
2022/05/05 08:46:29;;;;;;;16.30;9.60;;;;;;;-141.50;100.00;63355.56;5116143;28;20070;-77
2022/05/05 08:49:01;;;;;;;16.20;9.77;;;;;;;-141.50;100.00;63355.56;5122386;28;20047;-75
2022/05/05 08:51:38;;;;;;;16.38;8.80;;;;;;;-141.50;100.00;63355.56;5106290;28;20055;-76
2022/05/05 08:54:10;;;;;;;16.55;9.38;;;;;;;-141.50;100.00;63355.56;5125795;28;20066;-77
2022/05/05 08:56:43;;;;;;;16.90;9.45;;;;;;;-141.50;100.00;63355.56;5107375;28;20063;-77
2022/05/05 08:59:13;;;;;;;18.95;8.27;;;;;;;-141.50;100.00;63355.56;5120619;28;20047;-79
2022/05/05 09:01:40;;;;;;;16.10;9.32;;;;;;;-141.50;100.00;63355.56;5098329;28;20047;-78
2022/05/05 09:04:08;;;;;;;17.25;9.52;;;;;;;-141.50;100.00;63355.56;5115840;28;20048;-79
2022/05/05 09:06:46;;;;;;;18.25;9.55;;;;;;;-141.50;100.00;63355.56;5124161;28;20104;-77
2022/05/05 09:09:33;;;;;;;17.92;9.45;;;;;;;-141.50;100.00;63355.56;5118963;28;20208;-78
2022/05/05 09:12:18;;;;;;;12.27;8.90;;;;;;;-141.50;100.00;63355.56;5093136;28;20142;-79
2022/05/05 09:14:53;;;;;;;15.85;9.02;;;;;;;-141.50;100.00;63355.56;5094481;28;20051;-79
2022/05/05 09:17:24;;;;;;;10.68;7.82;;;;;;;-141.50;100.00;63355.56;5100086;28;20054;-78
2022/05/05 09:19:53;;;;;;;15.10;8.23;;;;;;;-141.50;100.00;63355.56;5107677;28;20042;-73
2022/05/05 09:22:25;;;;;;;11.85;8.27;;;;;;;-141.50;100.00;63355.56;5135364;28;20039;-74
2022/05/05 09:24:54;;;;;;;16.33;8.15;;;;;;;-141.50;100.00;63355.56;5126592;28;20044;-76
2022/05/05 09:27:21;;;;;;;14.52;7.95;;;;;;;-141.50;100.00;63355.56;5120673;28;20124;-75
2022/05/05 09:29:58;;;;;;;16.20;8.15;;;;;;;-141.50;100.00;63355.56;5099450;28;20541;-80
2022/05/05 09:32:36;;;;;;;14.98;8.52;;;;;;;-141.50;100.00;63355.56;5116234;28;20062;-77
2022/05/05 09:35:22;;;;;;;14.32;7.97;;;;;;;-141.50;100.00;63355.56;5112759;28;20048;-77
2022/05/05 09:37:50;;;;;;;13.88;8.02;;;;;;;-141.50;100.00;63355.56;5098372;28;20126;-78
2022/05/05 09:40:18;;;;;;;15.05;8.95;;;;;;;-141.50;100.00;63355.56;5093411;28;20047;-77
2022/05/05 09:42:50;;;;;;;10.88;8.07;;;;;;;-141.50;100.00;63355.56;5095121;28;20048;-78
2022/05/05 09:45:17;;;;;;;14.55;7.78;;;;;;;-141.50;100.00;63355.56;5106009;28;20063;-77
2022/05/05 09:47:46;;;;;;;16.80;8.38;;;;;;;-141.50;100.00;63355.56;5086854;28;20094;-78
2022/05/05 09:50:13;;;;;;;16.92;8.30;;;;;;;-141.50;100.00;63355.56;5096028;28;20105;-76
2022/05/05 09:58:21;;;;;;;12.75;7.80;;;;;;;-141.50;100.00;63355.56;5126124;28;20087;-76
2022/05/05 10:04:05;;;;;;;14.18;8.48;;;;;;;-141.50;100.00;63355.56;5116247;28;20461;-78
2022/05/05 10:06:34;;;;;;;14.98;8.82;;;;;;;-141.50;100.00;63355.56;5098412;28;20103;-80
2022/05/05 10:09:04;;;;;;;15.85;8.82;;;;;;;-141.50;100.00;63355.56;5111263;28;20055;-77
2022/05/05 10:11:32;;;;;;;14.65;8.27;;;;;;;-141.50;100.00;63355.56;5115282;28;20082;-76
2022/05/05 10:14:05;;;;;;;12.63;7.65;;;;;;;-141.50;100.00;63355.56;5100483;28;20067;-78
2022/05/05 10:16:32;;;;;;;15.05;8.63;;;;;;;-141.50;100.00;63355.56;5113853;28;20108;-77
2022/05/05 10:18:59;;;;;;;11.73;8.32;;;;;;;-141.50;100.00;63355.56;5097252;28;20525;-78
2022/05/05 10:21:57;;;;;;;9.18;7.05;;;;;;;-141.50;100.00;63355.56;5117898;28;20052;-79
2022/05/05 10:24:29;;;;;;;14.63;8.68;;;;;;;-141.50;100.00;63355.56;5098592;28;20043;-77
2022/05/05 10:26:58;;;;;;;13.10;7.85;;;;;;;-141.50;100.00;63355.56;5116214;28;20048;-76
2022/05/05 10:29:42;;;;;;;12.43;8.50;;;;;;;-141.50;100.00;63355.56;5117798;28;20055;-79
2022/05/05 10:32:09;;;;;;;15.07;8.18;;;;;;;-141.50;100.00;63355.56;5116059;28;20112;-79
2022/05/05 10:34:38;;;;;;;12.82;8.30;;;;;;;-141.50;100.00;63355.56;5096063;28;20044;-79
2022/05/05 10:37:13;;;;;;;12.98;8.25;;;;;;;-141.50;100.00;63355.56;5113934;28;20055;-77
2022/05/05 10:39:49;;;;;;;13.20;8.77;;;;;;;-141.50;100.00;63355.56;5096179;28;20047;-77
2022/05/05 10:42:35;;;;;;;14.30;8.40;;;;;;;-141.50;100.00;63355.56;5113989;28;20070;-78
2022/05/05 10:45:12;;;;;;;15.87;8.77;;;;;;;-141.50;100.00;63355.56;5095590;28;20048;-78
2022/05/05 10:47:47;;;;;;;17.20;9.10;;;;;;;-141.50;100.00;63355.56;5095139;28;20688;-77
2022/05/05 10:50:33;;;;;;;14.55;8.55;;;;;;;-141.50;100.00;63355.56;5118296;28;20051;-76
2022/05/05 10:53:01;;;;;;;13.65;8.90;;;;;;;-141.50;100.00;63355.56;5126216;28;20055;-78
2022/05/05 10:55:40;;;;;;;16.45;9.82;;;;;;;-141.50;100.00;63355.56;5113389;28;20048;-79
2022/05/05 10:59:06;;;;;;;17.65;9.60;;;;;;;-141.50;100.00;63355.56;5111778;28;20144;-78
2022/05/05 11:01:41;;;;;;;15.85;10.65;;;;;;;-141.50;100.00;63355.56;5114102;28;20065;-80
2022/05/05 11:04:15;;;;;;;16.55;11.52;;;;;;;-141.50;100.00;63355.56;5113639;28;20077;-77
2022/05/05 11:06:42;;;;;;;18.88;11.00;;;;;;;-141.50;100.00;63355.56;5112174;28;20052;-79
2022/05/05 11:09:27;;;;;;;19.15;10.57;;;;;;;-141.50;100.00;63355.56;5115401;28;20047;-78
2022/05/05 11:12:19;;;;;;;19.02;10.55;;;;;;;-141.50;100.00;63355.56;5117612;28;20092;-78
2022/05/05 11:23:41;;;;;;;17.00;9.05;;;;;;;-141.50;100.00;63355.56;5116468;28;20507;-79
2022/05/05 11:26:09;;;;;;;18.65;9.60;;;;;;;-141.50;100.00;63355.56;5098668;28;20055;-77
2022/05/05 11:28:36;;;;;;;16.65;10.82;;;;;;;-141.50;100.00;63355.56;5116130;28;20051;-78
2022/05/05 11:31:03;;;;;;;13.45;9.60;;;;;;;-141.50;100.00;63355.56;5116781;28;20598;-78
2022/05/05 11:33:29;;;;;;;15.07;9.30;;;;;;;-141.50;100.00;63355.56;5097672;28;20094;-79
2022/05/05 11:36:02;;;;;;;20.25;10.20;;;;;;;-141.50;100.00;63355.56;5098716;28;20585;-78
2022/05/05 11:38:29;;;;;;;16.13;9.48;;;;;;;-141.50;100.00;63355.56;5097885;28;20048;-77
2022/05/05 11:41:04;;;;;;;13.95;9.10;;;;;;;-141.50;100.00;63355.56;5098837;28;20051;-79
2022/05/05 11:46:18;;;;;;;15.23;8.38;;;;;;;-141.50;100.00;63355.56;5105908;28;20096;-79
2022/05/05 11:48:53;;;;;;;13.02;8.13;;;;;;;-141.50;100.00;63355.56;5104135;28;20047;-78
2022/05/05 11:51:28;;;;;;;13.38;8.80;;;;;;;-141.50;100.00;63355.56;5076484;28;20086;-78
2022/05/05 11:54:10;;;;;;;13.38;8.80;;;;;;;-141.50;100.00;63355.56;5094709;28;20541;-79
2022/05/05 11:56:42;;;;;;;15.10;8.68;;;;;;;-141.50;100.00;63355.56;5094358;28;20463;-79
2022/05/05 12:02:06;;;;;;;14.95;9.10;;;;;;;-141.50;100.00;63355.56;5095405;28;20481;-77